sensor_id;sensor_type;location;lat;lon;timestamp;pressure;altitude;pressure_sealevel;temperature;humidity
65614;BME280;52283;49.292;10.572;2023-04-05T00:01:51;97060.53;;;-0.92;88.82
65614;BME280;52283;49.292;10.572;2023-04-05T00:04:18;97058.59;;;-1.21;90.96
65614;BME280;52283;49.292;10.572;2023-04-05T00:06:46;97048.19;;;-1.07;91.27
65614;BME280;52283;49.292;10.572;2023-04-05T00:09:16;97055.16;;;-0.99;89.99
65614;BME280;52283;49.292;10.572;2023-04-05T00:11:43;97045.38;;;-1.00;90.38
65614;BME280;52283;49.292;10.572;2023-04-05T00:14:09;97038.41;;;-1.08;90.94
65614;BME280;52283;49.292;10.572;2023-04-05T00:16:36;97035.53;;;-1.28;92.45
65614;BME280;52283;49.292;10.572;2023-04-05T00:19:03;97043.75;;;-1.28;94.09
65614;BME280;52283;49.292;10.572;2023-04-05T00:21:30;97039.75;;;-1.19;94.23
65614;BME280;52283;49.292;10.572;2023-04-05T00:23:58;97033.56;;;-1.27;94.39
65614;BME280;52283;49.292;10.572;2023-04-05T00:26:25;97032.09;;;-1.35;96.13
65614;BME280;52283;49.292;10.572;2023-04-05T00:28:52;97034.44;;;-1.34;96.08
65614;BME280;52283;49.292;10.572;2023-04-05T00:31:18;97037.38;;;-1.51;96.65
65614;BME280;52283;49.292;10.572;2023-04-05T00:33:45;97022.09;;;-1.49;97.36
65614;BME280;52283;49.292;10.572;2023-04-05T00:36:14;97028.81;;;-1.54;98.33
65614;BME280;52283;49.292;10.572;2023-04-05T00:38:42;97028.19;;;-1.34;97.62
65614;BME280;52283;49.292;10.572;2023-04-05T00:41:10;97023.78;;;-1.59;99.27
65614;BME280;52283;49.292;10.572;2023-04-05T00:43:37;97024.50;;;-1.55;99.37
65614;BME280;52283;49.292;10.572;2023-04-05T00:46:04;97016.81;;;-1.67;100.00
65614;BME280;52283;49.292;10.572;2023-04-05T00:48:31;97015.16;;;-1.57;99.86
65614;BME280;52283;49.292;10.572;2023-04-05T00:50:58;97017.44;;;-1.52;100.00
65614;BME280;52283;49.292;10.572;2023-04-05T00:53:26;97012.19;;;-1.39;100.00
65614;BME280;52283;49.292;10.572;2023-04-05T00:55:53;97015.19;;;-1.30;99.42
65614;BME280;52283;49.292;10.572;2023-04-05T00:58:21;97008.66;;;-1.40;99.87
65614;BME280;52283;49.292;10.572;2023-04-05T01:00:57;97011.78;;;-1.72;100.00
65614;BME280;52283;49.292;10.572;2023-04-05T01:03:25;97006.91;;;-1.91;100.00
65614;BME280;52283;49.292;10.572;2023-04-05T01:06:05;97002.44;;;-2.12;100.00
65614;BME280;52283;49.292;10.572;2023-04-05T01:08:44;96993.03;;;-2.07;100.00
65614;BME280;52283;49.292;10.572;2023-04-05T01:11:15;96992.47;;;-1.95;100.00
65614;BME280;52283;49.292;10.572;2023-04-05T01:13:44;96991.28;;;-1.94;100.00
65614;BME280;52283;49.292;10.572;2023-04-05T01:16:11;96978.06;;;-1.65;100.00
65614;BME280;52283;49.292;10.572;2023-04-05T01:18:37;96975.22;;;-1.58;100.00
65614;BME280;52283;49.292;10.572;2023-04-05T01:21:20;96967.06;;;-1.62;100.00
65614;BME280;52283;49.292;10.572;2023-04-05T01:24:07;96970.00;;;-1.49;100.00
65614;BME280;52283;49.292;10.572;2023-04-05T01:26:56;96962.59;;;-1.52;100.00
65614;BME280;52283;49.292;10.572;2023-04-05T01:32:26;96952.06;;;-1.88;100.00
65614;BME280;52283;49.292;10.572;2023-04-05T01:35:01;96960.28;;;-1.88;100.00
65614;BME280;52283;49.292;10.572;2023-04-05T01:37:33;96955.78;;;-1.71;100.00
65614;BME280;52283;49.292;10.572;2023-04-05T01:40:00;96952.88;;;-1.87;100.00
65614;BME280;52283;49.292;10.572;2023-04-05T01:42:28;96951.84;;;-2.00;100.00
65614;BME280;52283;49.292;10.572;2023-04-05T01:44:57;96949.59;;;-2.09;100.00
65614;BME280;52283;49.292;10.572;2023-04-05T01:47:24;96951.22;;;-2.15;100.00
65614;BME280;52283;49.292;10.572;2023-04-05T01:49:50;96947.84;;;-2.26;100.00
65614;BME280;52283;49.292;10.572;2023-04-05T01:52:17;96953.31;;;-2.26;100.00
65614;BME280;52283;49.292;10.572;2023-04-05T01:54:43;96955.63;;;-2.25;100.00
65614;BME280;52283;49.292;10.572;2023-04-05T01:57:10;96954.88;;;-2.25;100.00
65614;BME280;52283;49.292;10.572;2023-04-05T01:59:36;96955.00;;;-2.02;100.00
65614;BME280;52283;49.292;10.572;2023-04-05T02:02:04;96948.75;;;-2.02;100.00
65614;BME280;52283;49.292;10.572;2023-04-05T02:04:30;96958.38;;;-1.91;100.00
65614;BME280;52283;49.292;10.572;2023-04-05T02:06:57;96950.25;;;-1.98;100.00
65614;BME280;52283;49.292;10.572;2023-04-05T02:09:23;96953.97;;;-2.15;100.00
65614;BME280;52283;49.292;10.572;2023-04-05T02:11:50;96953.19;;;-2.16;100.00
65614;BME280;52283;49.292;10.572;2023-04-05T02:14:16;96942.91;;;-2.42;100.00
65614;BME280;52283;49.292;10.572;2023-04-05T02:16:43;96950.06;;;-2.55;100.00
65614;BME280;52283;49.292;10.572;2023-04-05T02:19:11;96946.50;;;-2.49;100.00
65614;BME280;52283;49.292;10.572;2023-04-05T02:21:40;96955.16;;;-2.57;100.00
65614;BME280;52283;49.292;10.572;2023-04-05T02:24:06;96954.91;;;-2.70;100.00
65614;BME280;52283;49.292;10.572;2023-04-05T02:26:33;96951.03;;;-2.76;100.00
65614;BME280;52283;49.292;10.572;2023-04-05T02:28:59;96947.09;;;-2.75;100.00
65614;BME280;52283;49.292;10.572;2023-04-05T02:31:26;96947.03;;;-2.64;100.00
65614;BME280;52283;49.292;10.572;2023-04-05T02:33:52;96940.69;;;-2.58;100.00
65614;BME280;52283;49.292;10.572;2023-04-05T02:36:20;96932.88;;;-2.56;100.00
65614;BME280;52283;49.292;10.572;2023-04-05T02:38:47;96942.31;;;-2.23;100.00
65614;BME280;52283;49.292;10.572;2023-04-05T02:41:13;96928.06;;;-2.07;100.00
65614;BME280;52283;49.292;10.572;2023-04-05T02:43:40;96927.75;;;-2.16;100.00
65614;BME280;52283;49.292;10.572;2023-04-05T02:46:06;96928.44;;;-2.42;100.00
65614;BME280;52283;49.292;10.572;2023-04-05T02:48:33;96925.97;;;-2.71;100.00
65614;BME280;52283;49.292;10.572;2023-04-05T02:50:59;96934.22;;;-2.78;100.00
65614;BME280;52283;49.292;10.572;2023-04-05T02:53:27;96926.06;;;-2.82;100.00
65614;BME280;52283;49.292;10.572;2023-04-05T02:55:55;96937.06;;;-2.92;100.00
65614;BME280;52283;49.292;10.572;2023-04-05T02:58:22;96928.88;;;-2.89;100.00
65614;BME280;52283;49.292;10.572;2023-04-05T03:00:49;96925.78;;;-2.94;100.00
65614;BME280;52283;49.292;10.572;2023-04-05T03:03:17;96927.31;;;-2.93;100.00
65614;BME280;52283;49.292;10.572;2023-04-05T03:05:44;96928.88;;;-2.92;100.00
65614;BME280;52283;49.292;10.572;2023-04-05T03:08:11;96917.50;;;-2.84;100.00
65614;BME280;52283;49.292;10.572;2023-04-05T03:10:44;96919.22;;;-2.59;100.00
65614;BME280;52283;49.292;10.572;2023-04-05T03:13:11;96914.06;;;-2.16;100.00
65614;BME280;52283;49.292;10.572;2023-04-05T03:15:37;96915.78;;;-2.29;100.00
65614;BME280;52283;49.292;10.572;2023-04-05T03:18:04;96915.13;;;-2.82;100.00
65614;BME280;52283;49.292;10.572;2023-04-05T03:20:32;96917.56;;;-2.94;100.00
65614;BME280;52283;49.292;10.572;2023-04-05T03:22:59;96917.94;;;-2.92;100.00
65614;BME280;52283;49.292;10.572;2023-04-05T03:25:26;96913.66;;;-2.93;100.00
65614;BME280;52283;49.292;10.572;2023-04-05T03:27:54;96921.25;;;-3.15;100.00
65614;BME280;52283;49.292;10.572;2023-04-05T03:30:22;96918.00;;;-2.99;100.00
65614;BME280;52283;49.292;10.572;2023-04-05T03:32:48;96922.22;;;-2.88;100.00
65614;BME280;52283;49.292;10.572;2023-04-05T03:35:15;96909.53;;;-2.67;100.00
65614;BME280;52283;49.292;10.572;2023-04-05T03:37:43;96908.78;;;-2.71;100.00
65614;BME280;52283;49.292;10.572;2023-04-05T03:40:10;96914.91;;;-3.01;100.00
65614;BME280;52283;49.292;10.572;2023-04-05T03:42:37;96918.97;;;-3.24;100.00
65614;BME280;52283;49.292;10.572;2023-04-05T03:45:06;96915.78;;;-3.15;100.00
65614;BME280;52283;49.292;10.572;2023-04-05T03:47:33;96910.34;;;-3.19;100.00
65614;BME280;52283;49.292;10.572;2023-04-05T03:49:59;96913.97;;;-3.36;100.00
65614;BME280;52283;49.292;10.572;2023-04-05T03:52:26;96912.53;;;-3.51;100.00
65614;BME280;52283;49.292;10.572;2023-04-05T03:54:53;96917.63;;;-3.53;100.00
65614;BME280;52283;49.292;10.572;2023-04-05T03:57:19;96911.63;;;-3.38;100.00
65614;BME280;52283;49.292;10.572;2023-04-05T03:59:46;96918.59;;;-3.26;100.00
65614;BME280;52283;49.292;10.572;2023-04-05T04:02:14;96922.97;;;-3.39;100.00
65614;BME280;52283;49.292;10.572;2023-04-05T04:04:41;96922.69;;;-3.52;100.00
65614;BME280;52283;49.292;10.572;2023-04-05T04:07:07;96926.63;;;-3.63;100.00
65614;BME280;52283;49.292;10.572;2023-04-05T04:09:33;96928.22;;;-3.66;100.00
65614;BME280;52283;49.292;10.572;2023-04-05T04:12:00;96918.88;;;-3.69;100.00
65614;BME280;52283;49.292;10.572;2023-04-05T04:14:26;96920.78;;;-3.65;100.00
65614;BME280;52283;49.292;10.572;2023-04-05T04:16:53;96919.25;;;-3.70;100.00
65614;BME280;52283;49.292;10.572;2023-04-05T04:19:21;96921.56;;;-3.65;100.00
65614;BME280;52283;49.292;10.572;2023-04-05T04:21:47;96916.84;;;-3.57;100.00
65614;BME280;52283;49.292;10.572;2023-04-05T04:24:16;96916.47;;;-3.63;100.00
65614;BME280;52283;49.292;10.572;2023-04-05T04:26:44;96926.28;;;-3.69;100.00
65614;BME280;52283;49.292;10.572;2023-04-05T04:29:10;96927.13;;;-3.83;100.00
65614;BME280;52283;49.292;10.572;2023-04-05T04:31:40;96920.84;;;-3.76;100.00
65614;BME280;52283;49.292;10.572;2023-04-05T04:34:10;96920.03;;;-3.66;100.00
65614;BME280;52283;49.292;10.572;2023-04-05T04:36:39;96920.38;;;-3.60;100.00
65614;BME280;52283;49.292;10.572;2023-04-05T04:39:07;96911.06;;;-3.70;100.00
65614;BME280;52283;49.292;10.572;2023-04-05T04:41:34;96921.63;;;-3.79;100.00
65614;BME280;52283;49.292;10.572;2023-04-05T04:44:02;96915.41;;;-3.83;100.00
65614;BME280;52283;49.292;10.572;2023-04-05T04:46:29;96916.56;;;-3.77;100.00
65614;BME280;52283;49.292;10.572;2023-04-05T04:48:59;96912.97;;;-3.63;100.00
65614;BME280;52283;49.292;10.572;2023-04-05T04:51:25;96917.25;;;-3.59;100.00
65614;BME280;52283;49.292;10.572;2023-04-05T04:53:53;96917.75;;;-3.82;100.00
65614;BME280;52283;49.292;10.572;2023-04-05T04:56:19;96921.25;;;-3.81;100.00
65614;BME280;52283;49.292;10.572;2023-04-05T04:58:46;96921.22;;;-3.71;100.00
65614;BME280;52283;49.292;10.572;2023-04-05T05:01:12;96923.19;;;-3.78;100.00
65614;BME280;52283;49.292;10.572;2023-04-05T05:03:39;96925.56;;;-3.84;100.00
65614;BME280;52283;49.292;10.572;2023-04-05T05:06:06;96924.41;;;-3.86;100.00
65614;BME280;52283;49.292;10.572;2023-04-05T05:08:33;96920.94;;;-3.90;100.00
65614;BME280;52283;49.292;10.572;2023-04-05T05:11:01;96917.41;;;-3.87;100.00
65614;BME280;52283;49.292;10.572;2023-04-05T05:13:27;96926.28;;;-3.76;100.00
65614;BME280;52283;49.292;10.572;2023-04-05T05:15:54;96930.94;;;-3.66;100.00
65614;BME280;52283;49.292;10.572;2023-04-05T05:18:20;96927.06;;;-3.69;100.00
65614;BME280;52283;49.292;10.572;2023-04-05T05:20:49;96928.66;;;-3.78;100.00
65614;BME280;52283;49.292;10.572;2023-04-05T05:23:16;96927.09;;;-3.79;100.00
65614;BME280;52283;49.292;10.572;2023-04-05T05:25:42;96931.75;;;-3.76;100.00
65614;BME280;52283;49.292;10.572;2023-04-05T05:28:10;96932.53;;;-3.72;100.00
65614;BME280;52283;49.292;10.572;2023-04-05T05:30:36;96935.69;;;-3.74;100.00
65614;BME280;52283;49.292;10.572;2023-04-05T05:33:03;96939.97;;;-3.73;100.00
65614;BME280;52283;49.292;10.572;2023-04-05T05:35:29;96935.66;;;-3.70;100.00
65614;BME280;52283;49.292;10.572;2023-04-05T05:37:56;96932.84;;;-3.59;100.00
65614;BME280;52283;49.292;10.572;2023-04-05T05:40:22;96920.72;;;-3.51;100.00
65614;BME280;52283;49.292;10.572;2023-04-05T05:42:51;96924.19;;;-3.44;100.00
65614;BME280;52283;49.292;10.572;2023-04-05T05:45:18;96929.19;;;-3.31;100.00
65614;BME280;52283;49.292;10.572;2023-04-05T05:47:45;96923.75;;;-3.39;100.00
65614;BME280;52283;49.292;10.572;2023-04-05T05:50:12;96924.16;;;-3.40;100.00
65614;BME280;52283;49.292;10.572;2023-04-05T05:52:40;96928.41;;;-3.35;100.00
65614;BME280;52283;49.292;10.572;2023-04-05T05:55:07;96934.25;;;-3.30;100.00
65614;BME280;52283;49.292;10.572;2023-04-05T05:57:34;96929.94;;;-3.27;100.00
65614;BME280;52283;49.292;10.572;2023-04-05T06:00:01;96934.56;;;-3.21;100.00
65614;BME280;52283;49.292;10.572;2023-04-05T06:02:31;96939.66;;;-3.23;100.00
65614;BME280;52283;49.292;10.572;2023-04-05T06:04:58;96941.28;;;-3.29;100.00
65614;BME280;52283;49.292;10.572;2023-04-05T06:07:26;96939.59;;;-3.16;100.00
65614;BME280;52283;49.292;10.572;2023-04-05T06:09:52;96940.59;;;-2.92;100.00
65614;BME280;52283;49.292;10.572;2023-04-05T06:12:20;96940.16;;;-2.83;100.00
65614;BME280;52283;49.292;10.572;2023-04-05T06:14:46;96941.84;;;-2.55;100.00
65614;BME280;52283;49.292;10.572;2023-04-05T06:17:13;96944.66;;;-2.62;100.00
65614;BME280;52283;49.292;10.572;2023-04-05T06:19:41;96941.75;;;-2.44;100.00
65614;BME280;52283;49.292;10.572;2023-04-05T06:22:07;96943.56;;;-2.31;100.00
65614;BME280;52283;49.292;10.572;2023-04-05T06:24:34;96939.56;;;-2.23;100.00
65614;BME280;52283;49.292;10.572;2023-04-05T06:27:01;96948.75;;;-2.02;100.00
65614;BME280;52283;49.292;10.572;2023-04-05T06:29:27;96942.16;;;-1.74;100.00
65614;BME280;52283;49.292;10.572;2023-04-05T06:31:55;96937.69;;;-1.34;100.00
65614;BME280;52283;49.292;10.572;2023-04-05T06:34:21;96923.53;;;-1.02;100.00
65614;BME280;52283;49.292;10.572;2023-04-05T06:36:49;96925.31;;;-0.45;100.00
65614;BME280;52283;49.292;10.572;2023-04-05T06:39:16;96919.16;;;-0.10;100.00
65614;BME280;52283;49.292;10.572;2023-04-05T06:41:42;96921.81;;;-0.26;100.00
65614;BME280;52283;49.292;10.572;2023-04-05T06:44:09;96921.16;;;0.10;100.00
65614;BME280;52283;49.292;10.572;2023-04-05T06:46:36;96911.81;;;0.63;95.74
65614;BME280;52283;49.292;10.572;2023-04-05T06:49:02;96901.03;;;1.05;91.04
65614;BME280;52283;49.292;10.572;2023-04-05T06:51:29;96906.59;;;1.17;89.98
65614;BME280;52283;49.292;10.572;2023-04-05T06:53:57;96904.59;;;1.67;87.06
65614;BME280;52283;49.292;10.572;2023-04-05T06:56:23;96899.13;;;1.63;83.87
65614;BME280;52283;49.292;10.572;2023-04-05T06:58:50;96898.97;;;1.99;80.69
65614;BME280;52283;49.292;10.572;2023-04-05T07:01:17;96896.16;;;1.87;79.53
65614;BME280;52283;49.292;10.572;2023-04-05T07:03:43;96896.97;;;2.41;77.47
65614;BME280;52283;49.292;10.572;2023-04-05T07:06:10;96888.59;;;1.91;78.30
65614;BME280;52283;49.292;10.572;2023-04-05T07:08:37;96896.00;;;2.48;76.79
65614;BME280;52283;49.292;10.572;2023-04-05T07:11:05;96898.09;;;2.02;78.21
65614;BME280;52283;49.292;10.572;2023-04-05T07:13:31;96897.22;;;2.05;76.67
65614;BME280;52283;49.292;10.572;2023-04-05T07:16:01;96890.97;;;1.60;75.57
65614;BME280;52283;49.292;10.572;2023-04-05T07:18:28;96894.94;;;2.17;75.39
65614;BME280;52283;49.292;10.572;2023-04-05T07:20:56;96896.72;;;2.23;75.62
65614;BME280;52283;49.292;10.572;2023-04-05T07:23:26;96886.00;;;2.12;72.71
65614;BME280;52283;49.292;10.572;2023-04-05T07:25:53;96887.97;;;2.54;72.74
65614;BME280;52283;49.292;10.572;2023-04-05T07:28:21;96881.09;;;2.45;72.41
65614;BME280;52283;49.292;10.572;2023-04-05T07:30:48;96881.69;;;2.53;72.03
65614;BME280;52283;49.292;10.572;2023-04-05T07:33:14;96877.66;;;3.30;68.83
65614;BME280;52283;49.292;10.572;2023-04-05T07:35:41;96865.28;;;3.91;67.17
65614;BME280;52283;49.292;10.572;2023-04-05T07:38:08;96869.97;;;3.13;66.43
65614;BME280;52283;49.292;10.572;2023-04-05T07:40:35;96860.59;;;2.97;64.29
65614;BME280;52283;49.292;10.572;2023-04-05T07:43:02;96866.59;;;3.30;65.00
65614;BME280;52283;49.292;10.572;2023-04-05T07:45:29;96875.25;;;3.07;65.71
65614;BME280;52283;49.292;10.572;2023-04-05T07:47:56;96867.75;;;3.20;64.97
65614;BME280;52283;49.292;10.572;2023-04-05T07:50:22;96866.13;;;3.45;64.59
65614;BME280;52283;49.292;10.572;2023-04-05T07:52:49;96861.56;;;3.51;63.60
65614;BME280;52283;49.292;10.572;2023-04-05T07:55:15;96855.78;;;3.92;62.16
65614;BME280;52283;49.292;10.572;2023-04-05T08:07:59;96841.78;;;4.71;58.94
65614;BME280;52283;49.292;10.572;2023-04-05T08:10:26;96847.53;;;4.45;58.51
65614;BME280;52283;49.292;10.572;2023-04-05T08:12:52;96848.00;;;4.53;58.61
65614;BME280;52283;49.292;10.572;2023-04-05T08:15:19;96852.66;;;4.96;57.45
65614;BME280;52283;49.292;10.572;2023-04-05T08:17:46;96847.47;;;5.16;57.21
65614;BME280;52283;49.292;10.572;2023-04-05T08:20:12;96838.63;;;5.76;54.67
65614;BME280;52283;49.292;10.572;2023-04-05T08:22:39;96839.69;;;4.84;54.67
65614;BME280;52283;49.292;10.572;2023-04-05T08:25:08;96847.63;;;4.64;56.05
65614;BME280;52283;49.292;10.572;2023-04-05T08:27:34;96846.75;;;5.25;54.71
65614;BME280;52283;49.292;10.572;2023-04-05T08:30:01;96837.13;;;5.94;54.29
65614;BME280;52283;49.292;10.572;2023-04-05T08:32:28;96835.47;;;5.01;55.07
65614;BME280;52283;49.292;10.572;2023-04-05T08:34:54;96842.94;;;4.92;54.92
65614;BME280;52283;49.292;10.572;2023-04-05T08:37:21;96838.59;;;5.40;54.43
65614;BME280;52283;49.292;10.572;2023-04-05T08:39:47;96829.22;;;5.74;52.61
65614;BME280;52283;49.292;10.572;2023-04-05T08:42:16;96836.03;;;5.64;52.99
65614;BME280;52283;49.292;10.572;2023-04-05T08:44:44;96824.59;;;5.62;52.86
65614;BME280;52283;49.292;10.572;2023-04-05T08:47:11;96817.97;;;5.41;49.76
65614;BME280;52283;49.292;10.572;2023-04-05T08:49:42;96827.00;;;5.05;50.40
65614;BME280;52283;49.292;10.572;2023-04-05T08:52:09;96823.72;;;5.92;51.21
65614;BME280;52283;49.292;10.572;2023-04-05T08:54:35;96823.34;;;5.26;50.63
65614;BME280;52283;49.292;10.572;2023-04-05T08:57:02;96815.84;;;5.72;49.40
65614;BME280;52283;49.292;10.572;2023-04-05T08:59:31;96827.16;;;5.10;50.49
65614;BME280;52283;49.292;10.572;2023-04-05T09:01:59;96824.63;;;6.07;50.18
65614;BME280;52283;49.292;10.572;2023-04-05T09:04:29;96818.13;;;6.20;50.80
65614;BME280;52283;49.292;10.572;2023-04-05T09:06:58;96805.97;;;6.59;48.84
65614;BME280;52283;49.292;10.572;2023-04-05T09:09:25;96811.41;;;6.54;47.57
65614;BME280;52283;49.292;10.572;2023-04-05T09:11:54;96812.59;;;6.62;47.18
65614;BME280;52283;49.292;10.572;2023-04-05T09:14:21;96813.28;;;6.48;47.02
65614;BME280;52283;49.292;10.572;2023-04-05T09:16:49;96806.25;;;6.19;44.54
65614;BME280;52283;49.292;10.572;2023-04-05T09:19:16;96818.13;;;5.46;47.37
65614;BME280;52283;49.292;10.572;2023-04-05T09:21:59;96822.56;;;5.26;46.63
65614;BME280;52283;49.292;10.572;2023-04-05T09:24:30;96828.59;;;5.24;49.83
65614;BME280;52283;49.292;10.572;2023-04-05T09:27:04;96822.03;;;5.00;49.47
65614;BME280;52283;49.292;10.572;2023-04-05T09:29:31;96826.59;;;5.25;48.98
65614;BME280;52283;49.292;10.572;2023-04-05T09:32:00;96816.97;;;6.54;46.44
65614;BME280;52283;49.292;10.572;2023-04-05T09:34:28;96805.25;;;6.92;44.34
65614;BME280;52283;49.292;10.572;2023-04-05T09:36:55;96812.63;;;5.92;46.28
65614;BME280;52283;49.292;10.572;2023-04-05T09:39:27;96814.13;;;5.57;46.80
65614;BME280;52283;49.292;10.572;2023-04-05T09:42:07;96811.56;;;4.95;47.49
65614;BME280;52283;49.292;10.572;2023-04-05T09:44:54;96817.09;;;5.90;47.98
65614;BME280;52283;49.292;10.572;2023-04-05T09:47:24;96795.44;;;6.21;44.50
65614;BME280;52283;49.292;10.572;2023-04-05T09:49:55;96790.97;;;6.24;44.67
65614;BME280;52283;49.292;10.572;2023-04-05T09:52:22;96808.53;;;5.02;47.61
65614;BME280;52283;49.292;10.572;2023-04-05T09:54:51;96807.66;;;5.60;46.86
65614;BME280;52283;49.292;10.572;2023-04-05T09:57:18;96805.78;;;6.21;47.81
65614;BME280;52283;49.292;10.572;2023-04-05T09:59:45;96805.03;;;5.29;46.15
65614;BME280;52283;49.292;10.572;2023-04-05T10:02:12;96795.59;;;5.08;45.64
65614;BME280;52283;49.292;10.572;2023-04-05T10:04:40;96809.50;;;5.35;46.90
65614;BME280;52283;49.292;10.572;2023-04-05T10:07:08;96809.34;;;5.57;45.82
65614;BME280;52283;49.292;10.572;2023-04-05T10:09:35;96807.59;;;4.24;47.01
65614;BME280;52283;49.292;10.572;2023-04-05T10:12:03;96802.25;;;4.61;47.51
65614;BME280;52283;49.292;10.572;2023-04-05T10:14:31;96795.78;;;5.23;46.93
65614;BME280;52283;49.292;10.572;2023-04-05T10:17:08;96800.44;;;5.44;45.83
65614;BME280;52283;49.292;10.572;2023-04-05T10:19:56;96807.38;;;4.81;47.61
65614;BME280;52283;49.292;10.572;2023-04-05T10:22:32;96798.72;;;5.28;45.70
65614;BME280;52283;49.292;10.572;2023-04-05T10:25:04;96792.03;;;4.98;45.83
65614;BME280;52283;49.292;10.572;2023-04-05T10:27:34;96790.78;;;4.90;45.35
65614;BME280;52283;49.292;10.572;2023-04-05T10:30:05;96798.09;;;4.35;46.12
65614;BME280;52283;49.292;10.572;2023-04-05T10:32:43;96796.41;;;4.28;46.43
65614;BME280;52283;49.292;10.572;2023-04-05T10:35:23;96800.56;;;4.33;47.04
65614;BME280;52283;49.292;10.572;2023-04-05T10:38:10;96796.81;;;4.17;46.71
65614;BME280;52283;49.292;10.572;2023-04-05T10:40:42;96795.78;;;4.64;46.26
65614;BME280;52283;49.292;10.572;2023-04-05T10:43:15;96786.28;;;4.74;46.26
65614;BME280;52283;49.292;10.572;2023-04-05T10:45:43;96789.81;;;5.42;46.29
65614;BME280;52283;49.292;10.572;2023-04-05T10:48:15;96787.28;;;5.08;44.84
65614;BME280;52283;49.292;10.572;2023-04-05T10:50:46;96790.91;;;5.63;45.51
65614;BME280;52283;49.292;10.572;2023-04-05T10:53:14;96783.59;;;5.02;44.88
65614;BME280;52283;49.292;10.572;2023-04-05T10:55:43;96794.09;;;5.34;45.86
65614;BME280;52283;49.292;10.572;2023-04-05T10:58:11;96785.59;;;5.19;45.00
65614;BME280;52283;49.292;10.572;2023-04-05T11:00:39;96792.63;;;4.93;43.92
65614;BME280;52283;49.292;10.572;2023-04-05T11:03:05;96792.53;;;5.06;46.40
65614;BME280;52283;49.292;10.572;2023-04-05T11:05:33;96795.78;;;5.32;44.84
65614;BME280;52283;49.292;10.572;2023-04-05T11:08:04;96776.53;;;6.01;42.19
65614;BME280;52283;49.292;10.572;2023-04-05T11:10:34;96754.25;;;7.96;39.66
65614;BME280;52283;49.292;10.572;2023-04-05T11:13:05;96764.38;;;5.71;41.78
65614;BME280;52283;49.292;10.572;2023-04-05T11:15:33;96759.78;;;6.47;42.62
65614;BME280;52283;49.292;10.572;2023-04-05T11:18:01;96758.78;;;6.92;42.29
65614;BME280;52283;49.292;10.572;2023-04-05T11:20:39;96765.47;;;5.83;43.22
65614;BME280;52283;49.292;10.572;2023-04-05T11:23:07;96762.78;;;6.25;42.93
65614;BME280;52283;49.292;10.572;2023-04-05T11:25:36;96763.75;;;5.86;43.30
65614;BME280;52283;49.292;10.572;2023-04-05T11:28:04;96767.47;;;5.46;43.55
65614;BME280;52283;49.292;10.572;2023-04-05T11:30:45;96767.97;;;4.68;44.14
65614;BME280;52283;49.292;10.572;2023-04-05T11:33:34;96766.75;;;4.78;45.30
65614;BME280;52283;49.292;10.572;2023-04-05T11:36:02;96768.72;;;5.45;46.18
65614;BME280;52283;49.292;10.572;2023-04-05T11:38:30;96761.47;;;5.93;44.70
65614;BME280;52283;49.292;10.572;2023-04-05T11:41:10;96764.25;;;5.47;44.31
65614;BME280;52283;49.292;10.572;2023-04-05T11:43:37;96759.75;;;5.77;45.21
65614;BME280;52283;49.292;10.572;2023-04-05T11:46:04;96748.31;;;6.12;42.74
65614;BME280;52283;49.292;10.572;2023-04-05T11:48:30;96738.47;;;7.25;41.64
65614;BME280;52283;49.292;10.572;2023-04-05T11:50:57;96727.41;;;8.37;40.89
65614;BME280;52283;49.292;10.572;2023-04-05T11:53:23;96708.72;;;8.93;37.60
65614;BME280;52283;49.292;10.572;2023-04-05T11:55:51;96724.81;;;7.36;40.10
65614;BME280;52283;49.292;10.572;2023-04-05T11:58:21;96723.81;;;7.24;41.76
65614;BME280;52283;49.292;10.572;2023-04-05T12:00:56;96729.41;;;8.07;42.37
65614;BME280;52283;49.292;10.572;2023-04-05T12:03:23;96709.41;;;9.08;38.71
65614;BME280;52283;49.292;10.572;2023-04-05T12:05:51;96707.59;;;7.91;39.98
65614;BME280;52283;49.292;10.572;2023-04-05T12:08:18;96718.53;;;7.12;39.79
65614;BME280;52283;49.292;10.572;2023-04-05T12:10:53;96712.09;;;8.33;40.12
65614;BME280;52283;49.292;10.572;2023-04-05T12:13:27;96708.53;;;8.97;41.93
65614;BME280;52283;49.292;10.572;2023-04-05T12:15:56;96707.81;;;7.87;40.02
65614;BME280;52283;49.292;10.572;2023-04-05T12:18:24;96697.53;;;8.08;37.89
65614;BME280;52283;49.292;10.572;2023-04-05T12:20:51;96694.84;;;7.70;39.73
65614;BME280;52283;49.292;10.572;2023-04-05T12:23:18;96709.66;;;6.41;41.50
65614;BME280;52283;49.292;10.572;2023-04-05T12:25:45;96709.28;;;6.82;41.89
65614;BME280;52283;49.292;10.572;2023-04-05T12:28:14;96693.03;;;7.52;39.33
65614;BME280;52283;49.292;10.572;2023-04-05T12:30:49;96692.38;;;8.01;40.10
65614;BME280;52283;49.292;10.572;2023-04-05T12:33:26;96680.78;;;9.08;37.39
65614;BME280;52283;49.292;10.572;2023-04-05T12:35:53;96698.72;;;7.72;39.05
65614;BME280;52283;49.292;10.572;2023-04-05T12:38:20;96688.41;;;8.37;38.64
65614;BME280;52283;49.292;10.572;2023-04-05T12:40:46;96685.78;;;8.48;38.32
65614;BME280;52283;49.292;10.572;2023-04-05T12:43:14;96681.13;;;8.40;38.16
65614;BME280;52283;49.292;10.572;2023-04-05T12:45:44;96670.28;;;8.97;38.92
65614;BME280;52283;49.292;10.572;2023-04-05T12:48:12;96663.69;;;9.67;36.77
65614;BME280;52283;49.292;10.572;2023-04-05T12:50:41;96652.66;;;8.50;36.68
65614;BME280;52283;49.292;10.572;2023-04-05T12:53:14;96665.88;;;8.35;37.32
65614;BME280;52283;49.292;10.572;2023-04-05T12:55:47;96666.06;;;8.02;39.43
65614;BME280;52283;49.292;10.572;2023-04-05T12:58:16;96641.19;;;8.63;36.64
65614;BME280;52283;49.292;10.572;2023-04-05T13:00:43;96662.47;;;8.31;38.37
65614;BME280;52283;49.292;10.572;2023-04-05T13:03:17;96649.28;;;9.74;35.83
65614;BME280;52283;49.292;10.572;2023-04-05T13:05:45;96638.81;;;9.63;36.96
65614;BME280;52283;49.292;10.572;2023-04-05T13:08:13;96636.66;;;10.10;34.63
65614;BME280;52283;49.292;10.572;2023-04-05T13:10:40;96627.19;;;8.58;35.68